Gold Beach, OR

10:32 PM PDT on October 25, 2014 (GMT -0700)
KF7MWX | Change Station
CLOSE
Current Station
Personal Weather Station
Location: Gold Beach, OR
Elevation: 56 ft
Nearby Weather Stations

Elev 56 ft 42.41 °N, 124.42 °W | Updated 4 seconds ago

Overcast
Overcast
54.0 °F
Feels Like 54.0 °F
N
4.5
Wind Variable Wind from SE
Gusts 6.0 mph

Today
High -- | Low -- °F
--% Chance of Precip.
Yesterday
High -- | Low -- °F
Precip. -- in
7:42 AM 6:19 PM
Waxing Crescent, 6% visible
Pressure 30.08 in
Visibility 4.0 miles
Clouds Few 100 ft
Mostly Cloudy 2100 ft
Overcast 4200 ft
Dew Point 49 °F
Humidity 82%
Rainfall 1.90 in
Snow Depth Not available.
UV 0 out of 12
Pollen .40 out of 12
Air Quality Not available.
Flu Activity Sporadic
SPECI KBOK 260524Z AUTO VRB04KT 4SM -TSRA BR FEW001 BKN021 OVC042 12/11 A3008 RMK AO2 TSB20RAB10 P0016

More Conditions Fewer Conditions

Pressure 30.08 in
Visibility 4.0 miles
Clouds Few 100 ft
Mostly Cloudy 2100 ft
Overcast 4200 ft
Dew Point 49 °F
Humidity 82%
Rainfall 1.90 in
Snow Depth Not available.
UV 0 out of 12
Pollen .40 out of 12
Air Quality Not available.
Flu Activity Sporadic
SPECI KBOK 260524Z AUTO VRB04KT 4SM -TSRA BR FEW001 BKN021 OVC042 12/11 A3008 RMK AO2 TSB20RAB10 P0016

More Conditions Fewer Conditions

10-Day Weather Forecast

Almanac

Astronomy

Oct. 25, 2014 Rise Set
Actual Time 7:42 AM PDT 6:19 PM PDT
Civil Twilight 7:13 AM PDT 6:48 PM PDT
Nautical Twilight 6:40 AM PDT 7:21 PM PDT
Astronomical Twilight 6:08 AM PDT 7:54 PM PDT
Moon 9:28 AM PDT (10/25) 7:45 PM PDT (10/25)
Length of Visible Light 11h 35m
Length of Day
10h 37m
Tomorrow will be 2m 40s shorter.
Waxing Crescent, 6% of the Moon is Illuminated
Oct 26
Waxing Crescent
Oct 30
First Quarter
Nov 6
Full
Nov 14
Last Quarter
Nov 22
New

Yesterday's Extremes

State Highs State Lows

Community

WunderPhotos

Upload Photos

1,765,112 photos uploaded!

Nearby

Snow Depth

Station Depth Elevation
Big Red Mountain 0 in 6250 ft
Fish Lake 0 in 4665 ft
Billie Creek Divide 0 in 5300 ft
Fourmile Lake 0 in 6000 ft
Cold Springs Camp 0 in 6100 ft

Earthquake Activity

City Distance Mag. Time & Date
No recent earthquake activity has been reported nearby.
Minimum magnitude displayed is 2.5.

Coastal Water Temperatures

Place Temperature
Port Orford, OR 59.0 °F
Crescent City, CA 60.1 °F
Charleston, OR 57.9 °F

Nearby Weather Stations